Time;durP1;ratioP1;P1;durP2;ratioP2;P2;SDS_P1;SDS_P2;PMS_P1;PMS_P2;Temp;Humidity;BMP_temperature;BMP_pressure;BME280_temperature;BME280_humidity;BME280_pressure;Samples;Min_cycle;Max_cycle;Signal;HPM_P1;HPM_P2
2022/02/07 00:01:30;;;;;;;2.55;1.40;;;4.60;99.90;;;;;;5140088;22;20369;-89
2022/02/07 00:06:48;;;;;;;2.00;1.80;;;;;;;;;;5068847;28;20263;-88
2022/02/07 00:09:31;;;;;;;2.28;2.00;;;4.10;99.90;;;;;;5075054;28;20219;-89
2022/02/07 00:12:27;;;;;;;3.95;1.67;;;4.30;99.90;;;;;;5076186;28;20249;-89
2022/02/07 00:15:23;;;;;;;2.67;1.80;;;4.10;99.90;;;;;;5070068;28;20298;-89
2022/02/07 00:18:16;;;;;;;2.17;1.63;;;3.90;99.90;;;;;;5072334;28;20203;-87
2022/02/07 00:20:59;;;;;;;3.63;1.45;;;;;;;;;;5071295;28;20227;-89
2022/02/07 00:23:34;;;;;;;1.00;0.90;;;3.70;99.90;;;;;;5069926;28;20215;-89
2022/02/07 00:29:19;;;;;;;2.25;0.90;;;3.10;99.90;;;;;;5045471;28;20207;-89
2022/02/07 00:32:09;;;;;;;2.17;0.70;;;3.10;99.90;;;;;;5067601;28;20223;-89
2022/02/07 00:37:33;;;;;;;1.30;1.00;;;3.00;99.90;;;;;;5037299;28;20191;-89
2022/02/07 00:40:31;;;;;;;0.90;0.90;;;3.10;99.90;;;;;;5067427;28;20206;-90
2022/02/07 00:43:03;;;;;;;1.73;0.82;;;3.30;99.90;;;;;;5071936;28;20657;-87
2022/02/07 00:45:42;;;;;;;1.80;1.13;;;3.30;99.90;;;;;;5072690;28;20209;-90
2022/02/07 00:48:14;;;;;;;1.10;1.00;;;3.30;99.90;;;;;;5072037;28;20199;-88
2022/02/07 00:50:46;;;;;;;1.23;1.13;;;3.40;99.90;;;;;;5072876;28;20192;-89
2022/02/07 00:53:20;;;;;;;1.30;1.20;;;3.40;99.90;;;;;;5072320;28;20258;-88
2022/02/07 00:55:54;;;;;;;2.85;1.42;;;3.50;99.90;;;;;;5072428;28;20195;-90
2022/02/07 00:58:35;;;;;;;2.97;2.10;;;3.50;99.90;;;;;;5072607;28;20254;-91
2022/02/07 01:01:09;;;;;;;1.85;1.70;;;3.50;99.90;;;;;;5073129;28;20242;-89
2022/02/07 01:03:39;;;;;;;1.10;1.00;;;3.30;99.90;;;;;;5072883;28;20277;-88
2022/02/07 01:06:06;;;;;;;1.35;1.23;;;;;;;;;;5071942;28;20573;-90
2022/02/07 01:08:39;;;;;;;0.82;0.82;;;;;;;;;;5070630;28;20210;-89
2022/02/07 01:11:20;;;;;;;1.25;1.15;;;3.60;99.90;;;;;;5069684;28;20227;-89
2022/02/07 01:14:14;;;;;;;2.17;0.85;;;3.50;99.90;;;;;;5074856;28;20189;-90
2022/02/07 01:53:39;;;;;;;2.75;1.33;;;3.30;99.90;;;;;;5067644;28;20217;-90
2022/02/07 01:56:30;;;;;;;2.28;0.93;;;3.50;99.90;;;;;;5079439;28;20183;-90
2022/02/07 02:55:56;;;;;;;2.45;1.55;;;3.40;99.90;;;;;;4986008;22;20233;-83
2022/02/07 02:58:24;;;;;;;2.17;1.13;;;3.50;99.90;;;;;;5059262;28;20625;-81
2022/02/07 03:00:53;;;;;;;2.05;1.27;;;3.50;99.90;;;;;;5058506;28;20210;-82
2022/02/07 03:03:20;;;;;;;1.60;1.50;;;3.50;99.90;;;;;;5057652;28;20238;-80
2022/02/07 03:05:47;;;;;;;3.72;1.45;;;3.50;99.90;;;;;;5058358;28;20281;-81
2022/02/07 03:08:16;;;;;;;1.67;1.33;;;3.40;99.90;;;;;;5058472;28;20207;-81
2022/02/07 03:10:52;;;;;;;6.28;1.77;;;3.40;99.90;;;;;;5058566;28;20612;-81
2022/02/07 03:13:34;;;;;;;2.13;1.42;;;3.50;99.90;;;;;;5059376;28;20179;-82
2022/02/07 03:18:44;;;;;;;1.95;1.60;;;3.50;99.90;;;;;;5063007;28;20185;-82
2022/02/07 03:21:11;;;;;;;3.13;1.55;;;3.40;99.90;;;;;;5061629;28;20207;-82
2022/02/07 03:23:38;;;;;;;3.83;1.48;;;3.30;99.90;;;;;;5060384;28;20261;-82
2022/02/07 03:26:04;;;;;;;2.58;1.35;;;3.40;99.90;;;;;;5059271;28;20645;-81
2022/02/07 03:28:32;;;;;;;6.15;1.75;;;3.50;99.90;;;;;;5059306;28;20298;-82
2022/02/07 03:30:59;;;;;;;3.05;1.70;;;3.40;99.90;;;;;;5059564;28;20266;-81
2022/02/07 03:33:27;;;;;;;5.47;1.60;;;3.50;99.90;;;;;;5059181;28;20210;-81
2022/02/07 03:35:54;;;;;;;10.82;2.25;;;3.50;99.90;;;;;;5058932;28;20221;-82
2022/02/07 03:38:21;;;;;;;3.92;1.85;;;3.50;99.90;;;;;;5058870;28;20252;-82
2022/02/07 03:40:47;;;;;;;7.85;1.40;;;3.40;99.90;;;;;;5059130;28;20207;-81
2022/02/07 03:43:14;;;;;;;7.00;1.70;;;3.40;99.90;;;;;;5058175;28;20207;-82
2022/02/07 03:45:42;;;;;;;4.18;2.00;;;3.40;99.90;;;;;;5060276;28;20260;-82
2022/02/07 03:48:08;;;;;;;2.55;1.77;;;3.40;99.90;;;;;;5059294;28;20230;-82
2022/02/07 03:50:35;;;;;;;2.38;1.77;;;3.40;99.90;;;;;;5058656;28;20262;-82
2022/02/07 03:53:02;;;;;;;3.70;1.20;;;3.40;99.90;;;;;;5057355;28;20265;-82
2022/02/07 03:55:29;;;;;;;5.55;1.63;;;3.40;99.90;;;;;;5058227;28;20234;-83
2022/02/07 03:57:55;;;;;;;7.03;1.75;;;3.30;99.90;;;;;;5068537;28;20205;-82
2022/02/07 04:00:23;;;;;;;7.13;1.65;;;3.30;99.90;;;;;;5060500;28;20203;-81
2022/02/07 04:02:52;;;;;;;4.10;1.63;;;3.20;99.90;;;;;;5062414;28;20261;-82
2022/02/07 04:08:03;;;;;;;19.10;3.25;;;3.20;99.90;;;;;;5048746;28;20205;-82
2022/02/07 04:10:36;;;;;;;4.32;2.17;;;3.10;99.90;;;;;;5059600;28;20223;-82
2022/02/07 04:13:05;;;;;;;5.35;2.47;;;3.00;99.90;;;;;;5058476;28;20282;-82
2022/02/07 04:15:31;;;;;;;2.60;1.83;;;2.90;99.90;;;;;;5058318;28;20629;-82
2022/02/07 04:18:03;;;;;;;2.90;1.40;;;2.90;99.90;;;;;;5058327;28;20620;-82
2022/02/07 04:20:30;;;;;;;2.10;1.65;;;3.00;99.90;;;;;;5058734;28;20242;-82
2022/02/07 04:22:56;;;;;;;3.60;1.70;;;3.00;99.90;;;;;;5058296;28;20218;-82
2022/02/07 04:25:23;;;;;;;3.40;1.98;;;2.90;99.90;;;;;;5073359;28;20219;-81
2022/02/07 04:27:49;;;;;;;3.50;1.70;;;2.80;99.90;;;;;;5077501;28;20198;-81
2022/02/07 04:30:16;;;;;;;5.85;1.70;;;2.80;99.90;;;;;;5063097;28;20237;-81
2022/02/07 04:32:43;;;;;;;3.72;1.73;;;2.80;99.90;;;;;;5057794;28;20229;-80
2022/02/07 04:35:11;;;;;;;1.67;1.58;;;2.80;99.90;;;;;;5055564;28;20253;-80
2022/02/07 04:37:38;;;;;;;8.05;2.15;;;2.90;99.90;;;;;;5054395;28;20443;-80
2022/02/07 04:40:07;;;;;;;5.82;1.88;;;2.90;99.90;;;;;;5056348;28;20783;-80
2022/02/07 04:42:34;;;;;;;2.00;1.20;;;2.60;99.90;;;;;;5060932;28;20585;-81
2022/02/07 04:45:17;;;;;;;3.03;1.60;;;2.50;99.90;;;;;;5059907;28;20276;-81
2022/02/07 04:47:59;;;;;;;3.22;1.40;;;2.80;99.90;;;;;;5058092;28;20222;-82
2022/02/07 04:50:36;;;;;;;7.22;1.90;;;3.00;99.90;;;;;;5058696;28;20237;-82
2022/02/07 04:53:18;;;;;;;5.32;1.73;;;2.80;99.90;;;;;;5058936;28;20274;-82
2022/02/07 04:55:49;;;;;;;3.72;2.22;;;2.70;99.90;;;;;;5059107;28;20276;-81
2022/02/07 04:58:29;;;;;;;5.35;1.55;;;2.90;99.90;;;;;;5060384;28;20241;-82
2022/02/07 05:01:08;;;;;;;4.35;1.48;;;2.90;99.90;;;;;;5066739;28;20432;-80
2022/02/07 05:03:41;;;;;;;3.30;1.85;;;2.90;99.90;;;;;;5069480;28;20194;-81
2022/02/07 05:14:34;;;;;;;8.32;2.30;;;3.00;99.90;;;;;;4996477;28;20194;-81
2022/02/07 05:17:06;;;;;;;3.17;1.73;;;3.00;99.90;;;;;;5044545;28;20612;-81
2022/02/07 05:19:32;;;;;;;3.60;1.40;;;3.00;99.90;;;;;;5058017;28;20294;-82
2022/02/07 05:22:00;;;;;;;1.75;1.30;;;3.10;99.90;;;;;;5057558;28;20203;-82
2022/02/07 05:24:27;;;;;;;3.60;1.20;;;3.10;99.90;;;;;;5058836;28;20490;-82
2022/02/07 05:26:53;;;;;;;3.72;1.60;;;3.00;99.90;;;;;;5059897;28;20269;-82
2022/02/07 05:29:20;;;;;;;4.55;2.28;;;3.00;99.90;;;;;;5062107;28;20241;-82
2022/02/07 05:31:47;;;;;;;3.30;1.52;;;3.20;99.90;;;;;;5072688;28;20199;-81
2022/02/07 05:34:17;;;;;;;2.55;1.50;;;3.10;99.90;;;;;;5073728;28;20199;-81
2022/02/07 05:36:45;;;;;;;5.57;2.10;;;3.10;99.90;;;;;;5073044;28;20230;-82
2022/02/07 05:39:17;;;;;;;1.40;1.20;;;3.00;99.90;;;;;;5069865;28;20210;-81
2022/02/07 05:41:44;;;;;;;3.00;1.95;;;3.00;99.90;;;;;;5063973;28;20214;-83
2022/02/07 05:44:12;;;;;;;4.60;1.50;;;3.00;99.90;;;;;;5062168;28;20663;-82
2022/02/07 05:46:38;;;;;;;1.48;1.27;;;3.00;99.90;;;;;;5061804;28;20231;-81
2022/02/07 05:49:05;;;;;;;4.57;1.90;;;2.80;99.90;;;;;;5060618;28;20211;-81
2022/02/07 05:51:31;;;;;;;4.25;2.00;;;3.00;99.90;;;;;;5061179;28;20518;-81
2022/02/07 05:53:58;;;;;;;3.40;1.67;;;3.00;99.90;;;;;;5061286;28;20309;-81
2022/02/07 05:56:26;;;;;;;2.85;1.55;;;3.00;99.90;;;;;;5060228;28;20264;-81
2022/02/07 05:58:55;;;;;;;5.03;1.73;;;3.10;99.90;;;;;;5060377;28;20242;-81
2022/02/07 06:01:21;;;;;;;2.50;2.20;;;3.10;99.90;;;;;;5067997;28;20557;-83
2022/02/07 06:03:48;;;;;;;4.57;1.80;;;3.10;99.90;;;;;;5062446;28;20440;-81
2022/02/07 06:06:14;;;;;;;7.72;1.90;;;3.20;99.90;;;;;;5061826;28;20240;-83
2022/02/07 06:08:41;;;;;;;10.85;2.67;;;3.30;99.90;;;;;;5062295;28;20317;-82
2022/02/07 06:11:08;;;;;;;5.30;1.88;;;3.30;99.90;;;;;;5066046;28;20207;-82
2022/02/07 06:13:37;;;;;;;9.18;2.20;;;3.10;99.90;;;;;;5061744;28;20632;-81
2022/02/07 06:16:05;;;;;;;8.32;2.22;;;3.30;99.90;;;;;;5060477;28;20219;-81
2022/02/07 06:18:32;;;;;;;4.45;1.73;;;3.20;99.90;;;;;;5060066;28;20203;-82
2022/02/07 06:21:02;;;;;;;3.28;2.00;;;3.30;99.90;;;;;;5059417;28;20211;-80
2022/02/07 06:23:29;;;;;;;7.30;1.90;;;3.40;99.90;;;;;;5059449;28;20226;-83
2022/02/07 06:25:56;;;;;;;4.78;1.50;;;3.30;99.90;;;;;;5060070;28;20632;-82
2022/02/07 06:28:23;;;;;;;2.40;1.77;;;3.30;99.90;;;;;;5060098;28;20226;-82
2022/02/07 06:30:51;;;;;;;4.85;2.05;;;3.30;99.90;;;;;;5060158;28;20206;-82
2022/02/07 06:33:17;;;;;;;8.07;2.15;;;3.30;99.90;;;;;;5064092;28;20251;-82
2022/02/07 06:35:44;;;;;;;7.63;1.80;;;3.40;99.90;;;;;;5061793;28;20254;-82
2022/02/07 06:38:10;;;;;;;3.47;1.67;;;3.30;99.90;;;;;;5061465;28;20238;-81
2022/02/07 06:40:37;;;;;;;5.78;1.85;;;3.40;99.90;;;;;;5061687;28;20238;-82
2022/02/07 06:43:03;;;;;;;5.90;1.83;;;3.40;99.90;;;;;;5060330;28;20199;-81
2022/02/07 06:45:31;;;;;;;2.85;1.60;;;3.40;99.90;;;;;;5063595;28;20273;-82
2022/02/07 06:47:59;;;;;;;6.97;2.17;;;3.40;99.90;;;;;;5064321;28;20303;-82
2022/02/07 06:50:25;;;;;;;3.38;1.60;;;3.40;99.90;;;;;;5073654;28;20199;-82
2022/02/07 06:52:52;;;;;;;1.65;1.55;;;3.50;99.90;;;;;;5077567;28;20192;-80
2022/02/07 06:55:18;;;;;;;2.75;1.67;;;3.50;99.90;;;;;;5068136;28;20684;-80
2022/02/07 06:57:45;;;;;;;3.78;1.63;;;3.40;99.90;;;;;;5065995;28;20184;-79
2022/02/07 07:00:13;;;;;;;4.95;1.88;;;3.50;99.90;;;;;;5075529;28;20198;-81
2022/02/07 07:02:43;;;;;;;4.70;1.65;;;3.50;99.90;;;;;;5073988;28;20202;-80
2022/02/07 07:05:15;;;;;;;4.95;1.90;;;3.50;99.90;;;;;;5075968;28;20234;-80
2022/02/07 07:07:42;;;;;;;7.35;2.00;;;3.60;99.90;;;;;;5075431;28;20187;-80
2022/02/07 07:10:09;;;;;;;4.45;2.03;;;3.60;99.90;;;;;;5075478;28;20257;-81
2022/02/07 07:12:36;;;;;;;5.50;2.15;;;3.50;99.90;;;;;;5077607;28;20248;-81
2022/02/07 07:15:09;;;;;;;5.35;1.55;;;3.60;99.90;;;;;;5076870;28;20206;-82
2022/02/07 07:17:35;;;;;;;4.80;3.60;;;3.60;99.90;;;;;;5064043;28;20560;-82
2022/02/07 07:20:05;;;;;;;6.13;2.10;;;3.60;99.90;;;;;;5059313;28;20230;-82
2022/02/07 07:22:33;;;;;;;3.35;1.60;;;3.70;99.90;;;;;;5060301;28;20202;-82
2022/02/07 07:25:00;;;;;;;2.95;1.50;;;4.10;99.90;;;;;;5059926;28;20294;-82
2022/02/07 07:27:31;;;;;;;6.10;1.90;;;3.80;99.90;;;;;;5059501;28;20207;-82
2022/02/07 07:29:59;;;;;;;4.10;2.00;;;3.80;99.90;;;;;;5060241;28;20191;-81
2022/02/07 07:32:29;;;;;;;3.20;2.15;;;3.80;99.90;;;;;;5060758;28;20207;-82
2022/02/07 07:34:56;;;;;;;4.85;1.73;;;4.00;99.90;;;;;;5059769;28;20737;-82
2022/02/07 07:37:23;;;;;;;6.85;1.83;;;3.90;99.90;;;;;;5059564;28;20202;-83
2022/02/07 07:39:51;;;;;;;6.13;2.05;;;3.90;99.90;;;;;;5059583;28;20278;-83
2022/02/07 07:42:20;;;;;;;4.82;1.70;;;4.00;99.90;;;;;;5059164;28;20225;-82
2022/02/07 07:44:48;;;;;;;7.38;2.70;;;3.70;99.90;;;;;;5058532;28;20285;-82
2022/02/07 07:47:19;;;;;;;5.80;2.55;;;4.00;99.90;;;;;;5059090;28;20592;-83
2022/02/07 07:49:51;;;;;;;5.68;2.15;;;4.00;99.90;;;;;;5058590;28;20218;-82
2022/02/07 07:52:30;;;;;;;5.05;2.20;;;4.00;99.90;;;;;;5061594;28;20205;-82
2022/02/07 07:55:22;;;;;;;2.55;2.05;;;3.80;99.90;;;;;;5060457;28;20179;-83
2022/02/07 08:03:16;;;;;;;7.45;2.45;;;4.00;99.90;;;;;;5059490;28;20194;-82
2022/02/07 08:05:46;;;;;;;4.03;1.77;;;3.90;99.90;;;;;;5059324;28;20687;-82
2022/02/07 08:08:23;;;;;;;3.33;2.00;;;4.00;99.90;;;;;;5058175;28;20207;-82
2022/02/07 08:11:00;;;;;;;7.70;2.25;;;3.90;99.90;;;;;;5059128;28;20230;-82
2022/02/07 08:13:29;;;;;;;12.48;3.05;;;4.10;99.90;;;;;;5059718;28;20629;-82
2022/02/07 08:15:56;;;;;;;6.47;2.85;;;4.10;99.90;;;;;;5061490;28;20219;-82
2022/02/07 08:18:23;;;;;;;6.32;2.63;;;4.20;99.90;;;;;;5060525;28;20252;-82
2022/02/07 08:20:50;;;;;;;6.60;2.90;;;4.20;99.90;;;;;;5059487;28;20229;-82
2022/02/07 08:23:16;;;;;;;8.07;3.30;;;4.20;99.90;;;;;;5064941;28;20561;-82
2022/02/07 08:25:43;;;;;;;5.65;2.40;;;4.20;99.90;;;;;;5060475;28;20223;-82
2022/02/07 08:28:11;;;;;;;8.55;1.95;;;4.20;99.90;;;;;;5061143;28;20207;-82
2022/02/07 08:30:38;;;;;;;4.05;2.38;;;4.30;99.90;;;;;;5062441;28;20233;-83
2022/02/07 08:33:04;;;;;;;4.30;2.97;;;4.20;99.90;;;;;;5062921;28;20210;-82
2022/02/07 08:35:31;;;;;;;5.53;2.58;;;4.20;99.90;;;;;;5065776;28;20226;-83
2022/02/07 08:37:59;;;;;;;6.75;3.33;;;4.20;99.90;;;;;;5065779;28;20203;-84
2022/02/07 08:40:27;;;;;;;6.97;2.53;;;4.20;99.90;;;;;;5061863;28;20207;-83
2022/02/07 08:42:54;;;;;;;8.82;3.30;;;4.30;99.90;;;;;;5060938;28;20241;-81
2022/02/07 08:45:23;;;;;;;6.88;3.25;;;4.30;99.90;;;;;;5060987;28;20274;-83
2022/02/07 08:47:50;;;;;;;6.55;2.85;;;4.30;99.90;;;;;;5060301;28;20202;-83
2022/02/07 08:50:16;;;;;;;4.75;2.60;;;4.50;99.90;;;;;;5059699;28;20251;-84
2022/02/07 08:52:47;;;;;;;10.18;3.35;;;4.50;99.90;;;;;;5066513;28;20198;-81
2022/02/07 10:04:57;;;;;;;;;;;;;;;;;;;;;
2022/02/07 10:14:25;;;;;;;4.57;2.25;;;4.50;99.90;;;;;;5066676;22;20325;-82
2022/02/07 10:17:03;;;;;;;9.38;2.58;;;;;;;;;;5061719;28;20233;-83
2022/02/07 10:19:41;;;;;;;6.53;3.20;;;5.20;99.90;;;;;;5065391;28;20198;-82
2022/02/07 10:39:13;;;;;;;5.07;2.67;;;6.00;1.00;;;;;;5041307;28;20596;-83
2022/02/07 10:41:58;;;;;;;8.98;2.50;;;5.90;1.00;;;;;;5041944;28;20188;-83
2022/02/07 10:44:32;;;;;;;6.07;3.05;;;6.30;1.00;;;;;;5040977;28;20228;-82
2022/02/07 10:47:08;;;;;;;5.18;2.67;;;6.00;1.00;;;;;;5040616;28;20219;-83
2022/02/07 10:49:35;;;;;;;8.90;2.80;;;5.80;99.90;;;;;;5041227;28;20561;-82
2022/02/07 10:52:03;;;;;;;7.68;2.20;;;6.00;1.00;;;;;;5044753;28;20614;-82
2022/02/07 10:54:30;;;;;;;8.88;2.97;;;5.90;1.00;;;;;;5042560;28;20250;-82
2022/02/07 10:56:57;;;;;;;8.10;2.63;;;6.20;99.90;;;;;;5043622;28;20199;-82
2022/02/07 10:59:24;;;;;;;12.30;2.22;;;6.20;1.00;;;;;;5041650;28;20207;-82
2022/02/07 11:04:40;;;;;;;12.70;2.65;;;6.30;99.90;;;;;;5008667;28;20225;-82
2022/02/07 11:07:10;;;;;;;7.57;2.38;;;6.40;99.90;;;;;;5042848;28;20218;-82
2022/02/07 11:09:42;;;;;;;2.80;1.33;;;6.30;88.80;;;;;;5045056;28;20203;-81
2022/02/07 11:12:20;;;;;;;7.72;2.65;;;6.20;24.40;;;;;;5045241;28;20200;-84
2022/02/07 11:14:57;;;;;;;7.72;2.15;;;6.30;1.00;;;;;;5047091;28;20192;-83
2022/02/07 11:17:36;;;;;;;8.05;2.40;;;6.50;99.90;;;;;;5050278;28;20187;-83
2022/02/07 11:23:24;;;;;;;10.38;3.80;;;6.30;99.90;;;;;;5028664;28;20215;-82
2022/02/07 11:25:57;;;;;;;12.15;2.75;;;6.30;1.00;;;;;;5041295;28;20215;-84
2022/02/07 11:28:26;;;;;;;8.52;3.78;;;6.50;1.00;;;;;;5042614;28;20190;-82
2022/02/07 11:30:57;;;;;;;14.80;3.30;;;6.60;99.90;;;;;;5041207;28;20203;-82
2022/02/07 11:33:49;;;;;;;9.00;2.35;;;6.40;99.90;;;;;;5043754;28;20291;-82
2022/02/07 11:36:25;;;;;;;10.02;2.45;;;6.40;1.00;;;;;;5046018;28;20187;-82
2022/02/07 11:39:06;;;;;;;9.32;2.05;;;6.40;99.90;;;;;;5047740;28;20191;-81
2022/02/07 11:42:11;;;;;;;12.82;3.72;;;6.40;1.00;;;;;;5055638;28;20290;-81
2022/02/07 11:45:21;;;;;;;12.73;3.45;;;6.60;1.00;;;;;;5056947;28;20239;-82
2022/02/07 11:47:48;;;;;;;15.82;3.40;;;6.50;1.00;;;;;;5042610;28;20716;-83
2022/02/07 11:50:22;;;;;;;6.70;3.17;;;6.40;99.90;;;;;;5043340;28;20219;-82
2022/02/07 11:52:53;;;;;;;18.27;4.10;;;6.50;99.90;;;;;;5043041;28;20303;-82
2022/02/07 11:55:23;;;;;;;10.20;3.20;;;6.50;99.90;;;;;;5045237;28;20202;-83
2022/02/07 11:57:56;;;;;;;5.70;2.40;;;6.50;61.10;;;;;;5041525;28;20294;-86
2022/02/07 12:00:29;;;;;;;12.95;4.18;;;6.30;1.00;;;;;;5042369;28;20269;-83
2022/02/07 12:03:01;;;;;;;10.82;2.40;;;6.40;1.00;;;;;;5042067;28;20235;-83
2022/02/07 12:05:30;;;;;;;7.82;2.85;;;6.60;99.90;;;;;;5042282;28;20199;-83
2022/02/07 12:08:03;;;;;;;13.13;3.75;;;6.40;69.50;;;;;;5042434;28;20219;-83
2022/02/07 12:10:38;;;;;;;7.40;3.33;;;6.50;1.00;;;;;;5041639;28;20275;-81
2022/02/07 12:13:30;;;;;;;13.57;3.38;;;6.60;1.00;;;;;;5041938;28;20230;-82
2022/02/07 12:15:59;;;;;;;11.82;3.33;;;6.50;99.90;;;;;;5043703;28;20195;-83
2022/02/07 12:18:27;;;;;;;10.63;3.30;;;6.00;1.00;;;;;;5041904;28;20207;-81
2022/02/07 12:20:55;;;;;;;8.88;3.17;;;5.50;1.00;;;;;;5040870;28;20237;-84
2022/02/07 12:23:30;;;;;;;10.38;3.58;;;5.20;1.00;;;;;;5040633;28;20223;-82
2022/02/07 12:26:07;;;;;;;11.43;3.92;;;5.20;1.00;;;;;;5043507;28;20211;-83
2022/02/07 12:28:41;;;;;;;11.40;4.78;;;5.30;1.00;;;;;;5040152;28;20263;-82
2022/02/07 12:31:17;;;;;;;21.70;5.93;;;5.40;1.00;;;;;;5039681;28;20188;-83
2022/02/07 12:33:46;;;;;;;12.43;3.50;;;5.80;1.00;;;;;;5039698;28;20290;-83
2022/02/07 12:36:13;;;;;;;10.73;3.17;;;5.90;99.90;;;;;;5040139;28;20234;-82
2022/02/07 12:38:43;;;;;;;8.93;3.47;;;6.10;99.90;;;;;;5045599;28;20281;-83
2022/02/07 12:41:12;;;;;;;13.77;3.05;;;6.00;99.90;;;;;;5044558;28;20246;-82
2022/02/07 12:43:41;;;;;;;6.50;2.90;;;6.00;1.00;;;;;;5043491;28;20699;-83
2022/02/07 12:46:11;;;;;;;13.00;4.05;;;5.80;99.90;;;;;;5043306;28;20219;-83
2022/02/07 12:48:43;;;;;;;21.05;4.18;;;5.70;99.90;;;;;;5044723;28;20220;-83
2022/02/07 12:51:09;;;;;;;16.55;4.78;;;5.70;99.90;;;;;;5045846;28;20198;-83
2022/02/07 12:53:39;;;;;;;11.65;3.47;;;5.70;99.90;;;;;;5042994;28;20365;-83
2022/02/07 12:56:09;;;;;;;7.80;2.83;;;5.80;99.90;;;;;;5043620;28;20203;-83
2022/02/07 12:58:38;;;;;;;15.70;4.05;;;5.90;99.90;;;;;;5042753;28;20227;-82
2022/02/07 13:01:21;;;;;;;9.48;3.85;;;6.00;99.90;;;;;;5045895;28;20234;-84
2022/02/07 13:03:53;;;;;;;13.20;4.68;;;6.20;99.90;;;;;;5043719;28;20223;-82
2022/02/07 13:06:29;;;;;;;17.35;4.35;;;6.00;99.90;;;;;;5044370;28;20203;-81
2022/02/07 13:08:57;;;;;;;15.20;3.35;;;5.70;99.90;;;;;;5045019;28;20608;-81
2022/02/07 13:11:30;;;;;;;13.82;3.78;;;5.90;99.90;;;;;;5046993;28;20215;-84
2022/02/07 13:13:58;;;;;;;11.13;3.75;;;6.00;99.90;;;;;;5043097;28;20294;-83
2022/02/07 13:16:30;;;;;;;14.90;4.45;;;6.00;99.90;;;;;;5044231;28;20203;-82
2022/02/07 13:19:08;;;;;;;15.15;3.45;;;6.00;99.90;;;;;;5044139;28;20246;-82
2022/02/07 13:21:39;;;;;;;10.38;3.38;;;6.10;99.90;;;;;;5043581;28;20188;-84
2022/02/07 13:24:13;;;;;;;10.85;3.30;;;6.20;99.90;;;;;;5044198;28;20220;-82
2022/02/07 13:26:45;;;;;;;6.57;2.58;;;6.30;99.90;;;;;;5044283;28;20262;-81
2022/02/07 13:29:16;;;;;;;13.00;3.20;;;6.30;99.90;;;;;;5057254;28;20195;-83
2022/02/07 13:31:43;;;;;;;5.60;3.03;;;6.30;99.90;;;;;;5058180;28;20211;-80
2022/02/07 13:34:21;;;;;;;13.63;4.35;;;6.30;99.90;;;;;;5057381;28;20215;-80
2022/02/07 13:36:51;;;;;;;15.68;3.72;;;6.20;99.90;;;;;;5046325;28;20635;-83
2022/02/07 13:39:19;;;;;;;11.00;3.58;;;6.20;99.90;;;;;;5045816;28;20200;-82
2022/02/07 13:42:00;;;;;;;17.50;4.45;;;6.30;99.90;;;;;;5043140;28;20208;-83
2022/02/07 13:44:27;;;;;;;18.15;2.67;;;6.20;99.90;;;;;;5042617;28;20259;-82
2022/02/07 13:47:01;;;;;;;5.88;2.78;;;6.20;99.90;;;;;;5042449;28;20638;-82
2022/02/07 13:49:28;;;;;;;11.85;2.50;;;6.30;99.90;;;;;;5043048;28;20210;-82
2022/02/07 13:51:55;;;;;;;5.25;2.83;;;6.30;99.90;;;;;;5042134;28;20208;-82
2022/02/07 13:54:29;;;;;;;7.10;2.80;;;6.40;99.90;;;;;;5042034;28;20270;-83
2022/02/07 13:57:14;;;;;;;11.27;3.83;;;6.50;99.90;;;;;;5042604;28;20190;-82
2022/02/07 13:59:41;;;;;;;9.75;3.50;;;6.40;99.90;;;;;;5040735;28;20619;-82
2022/02/07 14:02:26;;;;;;;8.88;3.33;;;6.40;99.90;;;;;;5041983;28;20200;-82
2022/02/07 14:04:54;;;;;;;11.55;3.22;;;5.40;99.90;;;;;;5050802;28;20187;-81
2022/02/07 14:07:21;;;;;;;6.45;1.98;;;5.10;99.90;;;;;;5055804;28;20235;-81
2022/02/07 14:09:47;;;;;;;11.52;2.20;;;4.30;99.90;;;;;;5058363;28;20192;-82
2022/02/07 14:12:15;;;;;;;9.45;2.45;;;4.00;99.90;;;;;;5050065;28;20235;-81
2022/02/07 14:14:42;;;;;;;6.15;3.40;;;4.00;99.90;;;;;;5038683;28;20239;-82
2022/02/07 14:17:11;;;;;;;7.90;2.75;;;4.00;99.90;;;;;;5040189;28;20208;-82
2022/02/07 14:19:40;;;;;;;6.53;3.08;;;4.20;99.90;;;;;;5040176;28;20204;-81
2022/02/07 14:22:09;;;;;;;16.88;3.17;;;4.30;99.90;;;;;;5040061;28;20204;-81
2022/02/07 14:24:36;;;;;;;8.52;2.50;;;4.40;99.90;;;;;;5040369;28;20322;-82
2022/02/07 14:27:04;;;;;;;5.28;2.10;;;4.50;99.90;;;;;;5041416;28;20251;-82
2022/02/07 14:29:33;;;;;;;7.70;4.13;;;4.50;99.90;;;;;;5040811;28;20199;-83
2022/02/07 14:32:00;;;;;;;10.02;3.20;;;4.60;99.90;;;;;;5041796;28;20712;-83
2022/02/07 14:34:27;;;;;;;7.47;3.10;;;4.70;99.90;;;;;;5042329;28;20255;-82
2022/02/07 14:36:53;;;;;;;7.25;2.90;;;4.70;99.90;;;;;;5057730;28;20200;-80
2022/02/07 14:39:20;;;;;;;9.15;2.72;;;4.60;99.90;;;;;;5058425;28;20204;-81
2022/02/07 14:41:48;;;;;;;8.45;3.25;;;4.60;99.90;;;;;;5058833;28;20191;-80
2022/02/07 14:44:21;;;;;;;9.32;3.00;;;4.40;99.90;;;;;;5057598;28;20219;-80
2022/02/07 14:47:02;;;;;;;13.25;3.70;;;4.40;99.90;;;;;;5057840;28;20195;-81
2022/02/07 14:49:28;;;;;;;9.32;3.38;;;4.50;99.90;;;;;;5048833;28;20196;-82
2022/02/07 14:51:56;;;;;;;8.48;3.42;;;4.50;99.90;;;;;;5041754;28;20591;-83
2022/02/07 14:54:22;;;;;;;9.00;2.70;;;4.70;99.90;;;;;;5041610;28;20761;-81
2022/02/07 14:56:49;;;;;;;6.32;2.92;;;4.80;99.90;;;;;;5045430;28;20195;-83
2022/02/07 14:59:17;;;;;;;5.95;2.47;;;4.70;99.90;;;;;;5040752;28;20231;-84
2022/02/07 15:01:44;;;;;;;30.58;4.28;;;4.70;99.90;;;;;;5042644;28;20207;-82
2022/02/07 15:04:12;;;;;;;8.23;2.40;;;4.80;99.90;;;;;;5041159;28;20224;-81
2022/02/07 15:06:39;;;;;;;9.15;4.07;;;4.60;99.90;;;;;;5040812;28;20277;-82
2022/02/07 15:09:06;;;;;;;8.48;2.70;;;4.80;99.90;;;;;;5041001;28;20210;-82
2022/02/07 15:11:32;;;;;;;7.78;3.10;;;4.50;99.90;;;;;;5040882;28;20208;-83
2022/02/07 15:13:59;;;;;;;12.57;3.15;;;4.90;99.90;;;;;;5040629;28;20367;-83
2022/02/07 15:16:25;;;;;;;11.25;3.22;;;4.90;99.90;;;;;;5040968;28;20204;-82
2022/02/07 15:18:52;;;;;;;10.90;3.88;;;4.90;99.90;;;;;;5040235;28;20203;-82
2022/02/07 15:21:21;;;;;;;11.13;4.43;;;5.00;99.90;;;;;;5037883;28;20239;-81
2022/02/07 15:23:48;;;;;;;7.93;3.30;;;5.20;99.90;;;;;;5038186;28;20223;-81
2022/02/07 15:26:14;;;;;;;12.75;4.10;;;5.20;99.90;;;;;;5039043;28;20204;-82
2022/02/07 15:28:44;;;;;;;11.02;3.47;;;5.20;99.90;;;;;;5040169;28;20207;-82
2022/02/07 15:31:10;;;;;;;8.10;3.20;;;5.10;99.90;;;;;;5040318;28;20211;-82
2022/02/07 15:33:42;;;;;;;7.97;3.58;;;5.10;99.90;;;;;;5042503;28;20228;-84
2022/02/07 15:36:10;;;;;;;8.95;4.20;;;5.30;99.90;;;;;;5056713;28;20176;-82
2022/02/07 15:38:39;;;;;;;9.27;4.00;;;5.40;99.90;;;;;;5056688;28;20214;-82
2022/02/07 15:41:06;;;;;;;8.75;3.33;;;5.40;99.90;;;;;;5055868;28;20217;-80
2022/02/07 15:43:33;;;;;;;10.95;3.58;;;5.40;99.90;;;;;;5045768;28;20235;-83
2022/02/07 15:46:00;;;;;;;10.30;3.22;;;5.40;99.90;;;;;;5040250;28;20246;-82
2022/02/07 15:48:27;;;;;;;10.32;3.97;;;5.40;99.90;;;;;;5040500;28;20224;-84
2022/02/07 15:50:56;;;;;;;8.85;4.03;;;5.40;99.90;;;;;;5040562;28;20273;-82
2022/02/07 15:53:23;;;;;;;10.52;3.40;;;5.50;99.90;;;;;;5040351;28;20229;-83
2022/02/07 15:55:51;;;;;;;8.05;2.28;;;5.30;99.90;;;;;;5040248;28;20203;-84
2022/02/07 15:58:18;;;;;;;15.90;4.78;;;5.40;99.90;;;;;;5040338;28;20199;-81
2022/02/07 16:00:44;;;;;;;13.20;2.75;;;5.20;99.90;;;;;;5038968;28;20235;-83
2022/02/07 16:03:11;;;;;;;11.40;2.72;;;5.10;99.90;;;;;;5038978;28;20469;-82
2022/02/07 16:05:38;;;;;;;8.85;3.30;;;5.10;99.90;;;;;;5040522;28;20590;-82
2022/02/07 16:08:05;;;;;;;15.75;4.20;;;5.00;99.90;;;;;;5040212;28;20239;-83
2022/02/07 16:10:36;;;;;;;5.90;2.80;;;4.90;99.90;;;;;;5039616;28;20274;-83
2022/02/07 16:54:30;;;;;;;5.55;2.78;;;5.10;99.90;;;;;;5020732;28;20239;-82
2022/02/07 16:56:58;;;;;;;6.63;3.10;;;5.10;99.90;;;;;;5019980;28;20232;-82
2022/02/07 16:59:27;;;;;;;8.02;2.42;;;6.10;99.90;;;;;;5019805;28;20200;-83
2022/02/07 17:01:53;;;;;;;7.97;3.15;;;5.10;99.90;;;;;;5020061;28;20234;-83
2022/02/07 17:04:22;;;;;;;10.32;2.78;;;5.10;99.90;;;;;;5019459;28;20650;-82
2022/02/07 17:22:17;;;;;;;10.35;3.00;;;4.90;99.90;;;;;;4830072;29;20239;-89
2022/02/07 17:24:48;;;;;;;12.23;3.63;;;3.10;99.90;;;;;;4992776;28;20214;-88
2022/02/07 17:27:15;;;;;;;13.02;4.28;;;;;;;;;;5051083;28;20911;-88
2022/02/07 17:29:42;;;;;;;8.88;3.35;;;7.20;99.90;;;;;;5047652;28;20235;-88
2022/02/07 17:32:12;;;;;;;11.10;3.97;;;5.10;99.90;;;;;;5048404;28;20207;-88
2022/02/07 17:34:39;;;;;;;13.15;4.00;;;4.80;99.90;;;;;;5047298;28;20287;-89
2022/02/07 17:37:13;;;;;;;14.80;3.35;;;4.80;99.90;;;;;;5049113;28;20203;-88
2022/02/07 17:39:44;;;;;;;9.07;3.42;;;;;;;;;;5053729;28;20187;-90
2022/02/07 17:42:12;;;;;;;7.72;3.05;;;4.80;99.90;;;;;;5057532;28;20184;-90
2022/02/07 17:44:41;;;;;;;9.63;4.15;;;4.70;99.90;;;;;;5055109;28;20199;-88
2022/02/07 17:47:09;;;;;;;11.80;4.10;;;4.70;99.90;;;;;;5045979;28;20270;-89
2022/02/07 17:49:37;;;;;;;11.43;3.60;;;4.60;99.90;;;;;;5031785;28;20217;-89
2022/02/07 17:52:08;;;;;;;12.20;3.05;;;4.60;99.90;;;;;;5029573;28;20215;-89
2022/02/07 17:54:35;;;;;;;12.10;3.10;;;;;;;;;;5029946;28;20208;-89